sensor_id;sensor_type;location;lat;lon;timestamp;temperature;humidity
1015;DHT22;8170;48.118;11.628;2022-11-18T00:00:51;8.10;99.90
1015;DHT22;8170;48.118;11.628;2022-11-18T00:01:54;8.10;99.90
1015;DHT22;8170;48.118;11.628;2022-11-18T00:02:57;8.10;99.90
1015;DHT22;8170;48.118;11.628;2022-11-18T00:04:01;8.10;99.90
1015;DHT22;8170;48.118;11.628;2022-11-18T00:05:04;8.10;99.90
1015;DHT22;8170;48.118;11.628;2022-11-18T00:06:09;8.00;99.90
1015;DHT22;8170;48.118;11.628;2022-11-18T00:07:12;8.10;99.90
1015;DHT22;8170;48.118;11.628;2022-11-18T00:08:16;8.10;99.90
1015;DHT22;8170;48.118;11.628;2022-11-18T00:09:18;8.10;99.90
1015;DHT22;8170;48.118;11.628;2022-11-18T00:10:21;8.10;99.90
1015;DHT22;8170;48.118;11.628;2022-11-18T00:11:25;8.10;99.90
1015;DHT22;8170;48.118;11.628;2022-11-18T00:13:01;8.10;99.90
1015;DHT22;8170;48.118;11.628;2022-11-18T00:14:24;8.10;99.90
1015;DHT22;8170;48.118;11.628;2022-11-18T00:15:28;8.00;99.90
1015;DHT22;8170;48.118;11.628;2022-11-18T00:16:32;8.00;99.90
1015;DHT22;8170;48.118;11.628;2022-11-18T00:17:35;8.00;99.90
1015;DHT22;8170;48.118;11.628;2022-11-18T00:18:38;8.10;99.90
1015;DHT22;8170;48.118;11.628;2022-11-18T00:19:41;8.00;99.90
1015;DHT22;8170;48.118;11.628;2022-11-18T00:20:43;8.00;99.90
1015;DHT22;8170;48.118;11.628;2022-11-18T00:21:47;7.90;99.90
1015;DHT22;8170;48.118;11.628;2022-11-18T00:22:49;7.90;99.90
1015;DHT22;8170;48.118;11.628;2022-11-18T00:23:52;7.90;99.90
1015;DHT22;8170;48.118;11.628;2022-11-18T00:24:54;7.90;99.90
1015;DHT22;8170;48.118;11.628;2022-11-18T00:26:01;8.00;99.90
1015;DHT22;8170;48.118;11.628;2022-11-18T00:27:04;8.00;99.90
1015;DHT22;8170;48.118;11.628;2022-11-18T00:28:08;8.00;99.90
1015;DHT22;8170;48.118;11.628;2022-11-18T00:29:14;8.00;99.90
1015;DHT22;8170;48.118;11.628;2022-11-18T00:30:18;8.00;99.90
1015;DHT22;8170;48.118;11.628;2022-11-18T00:31:20;8.00;99.90
1015;DHT22;8170;48.118;11.628;2022-11-18T00:32:23;8.00;99.90
1015;DHT22;8170;48.118;11.628;2022-11-18T00:33:25;8.00;99.90
1015;DHT22;8170;48.118;11.628;2022-11-18T00:34:29;8.00;99.90
1015;DHT22;8170;48.118;11.628;2022-11-18T00:35:31;7.90;99.90
1015;DHT22;8170;48.118;11.628;2022-11-18T00:36:34;8.00;99.90
1015;DHT22;8170;48.118;11.628;2022-11-18T00:37:36;8.00;99.90
1015;DHT22;8170;48.118;11.628;2022-11-18T00:38:40;8.00;99.90
1015;DHT22;8170;48.118;11.628;2022-11-18T00:39:42;8.00;99.90
1015;DHT22;8170;48.118;11.628;2022-11-18T00:40:45;7.90;99.90
1015;DHT22;8170;48.118;11.628;2022-11-18T00:41:48;7.90;99.90
1015;DHT22;8170;48.118;11.628;2022-11-18T00:43:10;7.90;99.90
1015;DHT22;8170;48.118;11.628;2022-11-18T00:44:13;7.90;99.90
1015;DHT22;8170;48.118;11.628;2022-11-18T00:45:16;7.90;99.90
1015;DHT22;8170;48.118;11.628;2022-11-18T00:46:19;7.90;99.90
1015;DHT22;8170;48.118;11.628;2022-11-18T00:47:21;7.90;99.90
1015;DHT22;8170;48.118;11.628;2022-11-18T00:48:25;7.80;99.90
1015;DHT22;8170;48.118;11.628;2022-11-18T00:49:27;7.80;99.90
1015;DHT22;8170;48.118;11.628;2022-11-18T00:50:30;7.90;99.90
1015;DHT22;8170;48.118;11.628;2022-11-18T00:51:34;7.90;99.90
1015;DHT22;8170;48.118;11.628;2022-11-18T00:52:38;7.80;99.90
1015;DHT22;8170;48.118;11.628;2022-11-18T00:53:40;7.80;99.90
1015;DHT22;8170;48.118;11.628;2022-11-18T00:54:43;7.80;99.90
1015;DHT22;8170;48.118;11.628;2022-11-18T00:55:45;7.80;99.90
1015;DHT22;8170;48.118;11.628;2022-11-18T00:56:48;7.80;99.90
1015;DHT22;8170;48.118;11.628;2022-11-18T00:57:51;7.90;99.90
1015;DHT22;8170;48.118;11.628;2022-11-18T00:58:56;7.90;99.90
1015;DHT22;8170;48.118;11.628;2022-11-18T00:59:59;7.90;99.90
1015;DHT22;8170;48.118;11.628;2022-11-18T01:01:03;7.90;99.90
1015;DHT22;8170;48.118;11.628;2022-11-18T01:02:05;7.90;99.90
1015;DHT22;8170;48.118;11.628;2022-11-18T01:03:10;7.90;99.90
1015;DHT22;8170;48.118;11.628;2022-11-18T01:04:13;7.90;99.90
1015;DHT22;8170;48.118;11.628;2022-11-18T01:05:16;7.80;99.90
1015;DHT22;8170;48.118;11.628;2022-11-18T01:06:18;7.90;99.90
1015;DHT22;8170;48.118;11.628;2022-11-18T01:07:21;7.90;99.90
1015;DHT22;8170;48.118;11.628;2022-11-18T01:08:24;7.80;99.90
1015;DHT22;8170;48.118;11.628;2022-11-18T01:09:27;7.80;99.90
1015;DHT22;8170;48.118;11.628;2022-11-18T01:10:29;7.80;99.90
1015;DHT22;8170;48.118;11.628;2022-11-18T01:11:32;7.80;99.90
1015;DHT22;8170;48.118;11.628;2022-11-18T01:12:53;7.80;99.90
1015;DHT22;8170;48.118;11.628;2022-11-18T01:14:15;7.80;99.90
1015;DHT22;8170;48.118;11.628;2022-11-18T01:15:18;7.80;99.90
1015;DHT22;8170;48.118;11.628;2022-11-18T01:16:24;7.80;99.90
1015;DHT22;8170;48.118;11.628;2022-11-18T01:17:29;7.80;99.90
1015;DHT22;8170;48.118;11.628;2022-11-18T01:18:32;7.80;99.90
1015;DHT22;8170;48.118;11.628;2022-11-18T01:19:34;7.90;99.90
1015;DHT22;8170;48.118;11.628;2022-11-18T01:20:38;7.90;99.90
1015;DHT22;8170;48.118;11.628;2022-11-18T01:21:40;7.80;99.90
1015;DHT22;8170;48.118;11.628;2022-11-18T01:22:43;7.80;99.90
1015;DHT22;8170;48.118;11.628;2022-11-18T01:23:45;7.80;99.90
1015;DHT22;8170;48.118;11.628;2022-11-18T01:24:49;7.80;99.90
1015;DHT22;8170;48.118;11.628;2022-11-18T01:25:51;7.80;99.90
1015;DHT22;8170;48.118;11.628;2022-11-18T01:26:54;7.80;99.90
1015;DHT22;8170;48.118;11.628;2022-11-18T01:27:56;7.80;99.90
1015;DHT22;8170;48.118;11.628;2022-11-18T01:28:59;7.80;99.90
1015;DHT22;8170;48.118;11.628;2022-11-18T01:30:03;7.80;99.90
1015;DHT22;8170;48.118;11.628;2022-11-18T01:31:09;7.80;99.90
1015;DHT22;8170;48.118;11.628;2022-11-18T01:32:11;7.80;99.90
1015;DHT22;8170;48.118;11.628;2022-11-18T01:33:26;7.80;99.90
1015;DHT22;8170;48.118;11.628;2022-11-18T01:34:28;7.80;99.90
1015;DHT22;8170;48.118;11.628;2022-11-18T01:35:33;7.80;99.90
1015;DHT22;8170;48.118;11.628;2022-11-18T01:36:35;7.80;99.90
1015;DHT22;8170;48.118;11.628;2022-11-18T01:37:39;7.80;99.90
1015;DHT22;8170;48.118;11.628;2022-11-18T01:38:41;7.70;99.90
1015;DHT22;8170;48.118;11.628;2022-11-18T01:39:47;7.70;99.90
1015;DHT22;8170;48.118;11.628;2022-11-18T01:40:49;7.70;99.90
1015;DHT22;8170;48.118;11.628;2022-11-18T01:41:52;7.70;99.90
1015;DHT22;8170;48.118;11.628;2022-11-18T01:42:55;7.70;99.90
1015;DHT22;8170;48.118;11.628;2022-11-18T01:44:00;7.70;99.90
1015;DHT22;8170;48.118;11.628;2022-11-18T01:45:14;7.70;99.90
1015;DHT22;8170;48.118;11.628;2022-11-18T01:46:22;7.80;99.90
1015;DHT22;8170;48.118;11.628;2022-11-18T01:47:27;7.70;99.90
1015;DHT22;8170;48.118;11.628;2022-11-18T01:48:34;7.70;99.90
1015;DHT22;8170;48.118;11.628;2022-11-18T01:49:36;7.70;99.90
1015;DHT22;8170;48.118;11.628;2022-11-18T01:50:43;7.80;99.90
1015;DHT22;8170;48.118;11.628;2022-11-18T01:51:51;7.70;99.90
1015;DHT22;8170;48.118;11.628;2022-11-18T01:53:00;7.70;99.90
1015;DHT22;8170;48.118;11.628;2022-11-18T01:54:07;7.80;99.90
1015;DHT22;8170;48.118;11.628;2022-11-18T01:55:14;7.80;99.90
1015;DHT22;8170;48.118;11.628;2022-11-18T01:56:20;7.80;99.90
1015;DHT22;8170;48.118;11.628;2022-11-18T01:57:26;7.80;99.90
1015;DHT22;8170;48.118;11.628;2022-11-18T01:58:32;7.80;99.90
1015;DHT22;8170;48.118;11.628;2022-11-18T01:59:40;7.80;99.90
1015;DHT22;8170;48.118;11.628;2022-11-18T02:00:44;7.80;99.90
1015;DHT22;8170;48.118;11.628;2022-11-18T02:01:51;7.80;99.90
1015;DHT22;8170;48.118;11.628;2022-11-18T02:03:01;7.80;99.90
1015;DHT22;8170;48.118;11.628;2022-11-18T02:04:05;7.70;99.90
1015;DHT22;8170;48.118;11.628;2022-11-18T02:05:09;7.80;99.90
1015;DHT22;8170;48.118;11.628;2022-11-18T02:06:20;7.70;99.90
1015;DHT22;8170;48.118;11.628;2022-11-18T02:07:23;7.80;99.90
1015;DHT22;8170;48.118;11.628;2022-11-18T02:08:27;7.80;99.90
1015;DHT22;8170;48.118;11.628;2022-11-18T02:09:31;7.80;99.90
1015;DHT22;8170;48.118;11.628;2022-11-18T02:10:33;7.80;99.90
1015;DHT22;8170;48.118;11.628;2022-11-18T02:11:36;7.80;99.90
1015;DHT22;8170;48.118;11.628;2022-11-18T02:12:55;7.80;99.90
1015;DHT22;8170;48.118;11.628;2022-11-18T02:14:02;7.80;99.90
1015;DHT22;8170;48.118;11.628;2022-11-18T02:15:05;7.80;99.90
1015;DHT22;8170;48.118;11.628;2022-11-18T02:16:13;7.70;99.90
1015;DHT22;8170;48.118;11.628;2022-11-18T02:17:29;7.80;99.90
1015;DHT22;8170;48.118;11.628;2022-11-18T02:18:44;7.80;99.90
1015;DHT22;8170;48.118;11.628;2022-11-18T02:21:32;7.80;99.90
1015;DHT22;8170;48.118;11.628;2022-11-18T02:22:51;7.80;99.90
1015;DHT22;8170;48.118;11.628;2022-11-18T02:24:18;7.80;99.90
1015;DHT22;8170;48.118;11.628;2022-11-18T02:25:32;7.80;99.90
1015;DHT22;8170;48.118;11.628;2022-11-18T02:28:37;7.80;99.90
1015;DHT22;8170;48.118;11.628;2022-11-18T02:29:45;7.80;99.90
1015;DHT22;8170;48.118;11.628;2022-11-18T02:30:57;7.80;99.90
1015;DHT22;8170;48.118;11.628;2022-11-18T02:32:02;7.80;99.90
1015;DHT22;8170;48.118;11.628;2022-11-18T02:33:10;7.80;99.90
1015;DHT22;8170;48.118;11.628;2022-11-18T02:34:20;7.80;99.90
1015;DHT22;8170;48.118;11.628;2022-11-18T02:35:28;7.80;99.90
1015;DHT22;8170;48.118;11.628;2022-11-18T02:36:37;7.80;99.90
1015;DHT22;8170;48.118;11.628;2022-11-18T02:37:46;7.80;99.90
1015;DHT22;8170;48.118;11.628;2022-11-18T02:38:52;7.80;99.90
1015;DHT22;8170;48.118;11.628;2022-11-18T02:39:58;7.70;99.90
1015;DHT22;8170;48.118;11.628;2022-11-18T02:41:05;7.80;99.90
1015;DHT22;8170;48.118;11.628;2022-11-18T02:42:11;7.80;99.90
1015;DHT22;8170;48.118;11.628;2022-11-18T02:43:18;7.80;99.90
1015;DHT22;8170;48.118;11.628;2022-11-18T02:44:24;7.70;99.90
1015;DHT22;8170;48.118;11.628;2022-11-18T02:45:29;7.70;99.90
1015;DHT22;8170;48.118;11.628;2022-11-18T02:46:35;7.70;99.90
1015;DHT22;8170;48.118;11.628;2022-11-18T02:47:40;7.70;99.90
1015;DHT22;8170;48.118;11.628;2022-11-18T02:48:47;7.70;99.90
1015;DHT22;8170;48.118;11.628;2022-11-18T02:49:53;7.70;99.90
1015;DHT22;8170;48.118;11.628;2022-11-18T02:50:57;7.70;99.90
1015;DHT22;8170;48.118;11.628;2022-11-18T02:52:01;7.80;99.90
1015;DHT22;8170;48.118;11.628;2022-11-18T02:53:07;7.80;99.90
1015;DHT22;8170;48.118;11.628;2022-11-18T02:54:11;7.80;99.90
1015;DHT22;8170;48.118;11.628;2022-11-18T02:55:17;7.80;99.90
1015;DHT22;8170;48.118;11.628;2022-11-18T02:56:20;7.80;99.90
1015;DHT22;8170;48.118;11.628;2022-11-18T02:57:25;7.80;99.90
1015;DHT22;8170;48.118;11.628;2022-11-18T02:58:29;7.80;99.90
1015;DHT22;8170;48.118;11.628;2022-11-18T02:59:33;7.70;99.90
1015;DHT22;8170;48.118;11.628;2022-11-18T03:00:36;7.70;99.90
1015;DHT22;8170;48.118;11.628;2022-11-18T03:01:39;7.80;99.90
1015;DHT22;8170;48.118;11.628;2022-11-18T03:02:44;7.80;99.90
1015;DHT22;8170;48.118;11.628;2022-11-18T03:03:48;7.80;99.90
1015;DHT22;8170;48.118;11.628;2022-11-18T03:04:54;7.80;99.90
1015;DHT22;8170;48.118;11.628;2022-11-18T03:06:05;7.80;99.90
1015;DHT22;8170;48.118;11.628;2022-11-18T03:07:12;7.80;99.90
1015;DHT22;8170;48.118;11.628;2022-11-18T03:08:22;7.80;99.90
1015;DHT22;8170;48.118;11.628;2022-11-18T03:09:28;7.80;99.90
1015;DHT22;8170;48.118;11.628;2022-11-18T03:10:41;7.80;99.90
1015;DHT22;8170;48.118;11.628;2022-11-18T03:11:50;7.80;99.90
1015;DHT22;8170;48.118;11.628;2022-11-18T03:13:01;7.80;99.90
1015;DHT22;8170;48.118;11.628;2022-11-18T03:14:15;7.80;99.90
1015;DHT22;8170;48.118;11.628;2022-11-18T03:15:27;7.80;99.90
1015;DHT22;8170;48.118;11.628;2022-11-18T03:16:38;7.70;99.90
1015;DHT22;8170;48.118;11.628;2022-11-18T03:17:48;7.80;99.90
1015;DHT22;8170;48.118;11.628;2022-11-18T03:19:01;7.80;99.90
1015;DHT22;8170;48.118;11.628;2022-11-18T03:20:14;7.70;99.90
1015;DHT22;8170;48.118;11.628;2022-11-18T03:21:22;7.70;99.90
1015;DHT22;8170;48.118;11.628;2022-11-18T03:22:32;7.70;99.90
1015;DHT22;8170;48.118;11.628;2022-11-18T03:23:38;7.70;99.90
1015;DHT22;8170;48.118;11.628;2022-11-18T03:24:44;7.70;99.90
1015;DHT22;8170;48.118;11.628;2022-11-18T03:25:54;7.70;99.90
1015;DHT22;8170;48.118;11.628;2022-11-18T03:27:02;7.70;99.90
1015;DHT22;8170;48.118;11.628;2022-11-18T03:28:10;7.70;99.90
1015;DHT22;8170;48.118;11.628;2022-11-18T03:29:24;7.70;99.90
1015;DHT22;8170;48.118;11.628;2022-11-18T03:30:30;7.80;99.90
1015;DHT22;8170;48.118;11.628;2022-11-18T03:31:39;7.80;99.90
1015;DHT22;8170;48.118;11.628;2022-11-18T03:32:47;7.80;99.90
1015;DHT22;8170;48.118;11.628;2022-11-18T03:34:05;7.80;99.90
1015;DHT22;8170;48.118;11.628;2022-11-18T03:35:11;7.80;99.90
1015;DHT22;8170;48.118;11.628;2022-11-18T03:36:16;7.80;99.90
1015;DHT22;8170;48.118;11.628;2022-11-18T03:37:20;7.80;99.90
1015;DHT22;8170;48.118;11.628;2022-11-18T03:38:29;7.80;99.90
1015;DHT22;8170;48.118;11.628;2022-11-18T03:39:36;7.80;99.90
1015;DHT22;8170;48.118;11.628;2022-11-18T03:40:45;7.80;99.90
1015;DHT22;8170;48.118;11.628;2022-11-18T03:41:52;7.80;99.90
1015;DHT22;8170;48.118;11.628;2022-11-18T03:42:59;7.80;99.90
1015;DHT22;8170;48.118;11.628;2022-11-18T03:44:06;7.80;99.90
1015;DHT22;8170;48.118;11.628;2022-11-18T03:45:14;7.80;99.90
1015;DHT22;8170;48.118;11.628;2022-11-18T03:46:20;7.80;99.90
1015;DHT22;8170;48.118;11.628;2022-11-18T03:47:30;7.70;99.90
1015;DHT22;8170;48.118;11.628;2022-11-18T03:48:36;7.80;99.90
1015;DHT22;8170;48.118;11.628;2022-11-18T03:49:44;7.80;99.90
1015;DHT22;8170;48.118;11.628;2022-11-18T03:50:50;7.80;99.90
1015;DHT22;8170;48.118;11.628;2022-11-18T03:51:57;7.70;99.90
1015;DHT22;8170;48.118;11.628;2022-11-18T03:53:03;7.80;99.90
1015;DHT22;8170;48.118;11.628;2022-11-18T03:54:09;7.80;99.90
1015;DHT22;8170;48.118;11.628;2022-11-18T03:55:16;7.80;99.90
1015;DHT22;8170;48.118;11.628;2022-11-18T03:56:22;7.80;99.90
1015;DHT22;8170;48.118;11.628;2022-11-18T03:57:31;7.80;99.90
1015;DHT22;8170;48.118;11.628;2022-11-18T03:58:39;7.80;99.90
1015;DHT22;8170;48.118;11.628;2022-11-18T03:59:46;7.80;99.90
1015;DHT22;8170;48.118;11.628;2022-11-18T04:00:53;7.80;99.90
1015;DHT22;8170;48.118;11.628;2022-11-18T04:02:01;7.80;99.90
1015;DHT22;8170;48.118;11.628;2022-11-18T04:03:07;7.80;99.90
1015;DHT22;8170;48.118;11.628;2022-11-18T04:04:09;7.80;99.90
1015;DHT22;8170;48.118;11.628;2022-11-18T04:05:15;7.80;99.90
1015;DHT22;8170;48.118;11.628;2022-11-18T04:06:24;7.80;99.90
1015;DHT22;8170;48.118;11.628;2022-11-18T04:07:32;7.80;99.90
1015;DHT22;8170;48.118;11.628;2022-11-18T04:08:38;7.70;99.90
1015;DHT22;8170;48.118;11.628;2022-11-18T04:09:44;7.70;99.90
1015;DHT22;8170;48.118;11.628;2022-11-18T04:10:51;7.70;99.90
1015;DHT22;8170;48.118;11.628;2022-11-18T04:12:01;7.70;99.90
1015;DHT22;8170;48.118;11.628;2022-11-18T04:13:06;7.60;99.90
1015;DHT22;8170;48.118;11.628;2022-11-18T04:14:11;7.60;99.90
1015;DHT22;8170;48.118;11.628;2022-11-18T04:15:14;7.60;99.90
1015;DHT22;8170;48.118;11.628;2022-11-18T04:16:18;7.60;99.90
1015;DHT22;8170;48.118;11.628;2022-11-18T04:17:26;7.60;99.90
1015;DHT22;8170;48.118;11.628;2022-11-18T04:18:31;7.60;99.90
1015;DHT22;8170;48.118;11.628;2022-11-18T04:19:33;7.50;99.90
1015;DHT22;8170;48.118;11.628;2022-11-18T04:20:37;7.50;99.90
1015;DHT22;8170;48.118;11.628;2022-11-18T04:21:39;7.50;99.90
1015;DHT22;8170;48.118;11.628;2022-11-18T04:22:42;7.50;99.90
1015;DHT22;8170;48.118;11.628;2022-11-18T04:23:44;7.50;99.90
1015;DHT22;8170;48.118;11.628;2022-11-18T04:24:47;7.50;99.90
1015;DHT22;8170;48.118;11.628;2022-11-18T04:25:50;7.50;99.90
1015;DHT22;8170;48.118;11.628;2022-11-18T04:26:53;7.50;99.90
1015;DHT22;8170;48.118;11.628;2022-11-18T04:27:55;7.50;99.90
1015;DHT22;8170;48.118;11.628;2022-11-18T04:28:58;7.60;99.90
1015;DHT22;8170;48.118;11.628;2022-11-18T04:30:00;7.60;99.90
1015;DHT22;8170;48.118;11.628;2022-11-18T04:31:04;7.60;99.90
1015;DHT22;8170;48.118;11.628;2022-11-18T04:32:06;7.60;99.90
1015;DHT22;8170;48.118;11.628;2022-11-18T04:33:09;7.60;99.90
1015;DHT22;8170;48.118;11.628;2022-11-18T04:34:13;7.60;99.90
1015;DHT22;8170;48.118;11.628;2022-11-18T04:35:16;7.60;99.90
1015;DHT22;8170;48.118;11.628;2022-11-18T04:36:19;7.60;99.90
1015;DHT22;8170;48.118;11.628;2022-11-18T04:37:21;7.70;99.90
1015;DHT22;8170;48.118;11.628;2022-11-18T04:38:24;7.70;99.90
1015;DHT22;8170;48.118;11.628;2022-11-18T04:39:26;7.70;99.90
1015;DHT22;8170;48.118;11.628;2022-11-18T04:40:30;7.70;99.90
1015;DHT22;8170;48.118;11.628;2022-11-18T04:41:32;7.70;99.90
1015;DHT22;8170;48.118;11.628;2022-11-18T04:42:52;7.70;99.90
1015;DHT22;8170;48.118;11.628;2022-11-18T04:43:56;7.70;99.90
1015;DHT22;8170;48.118;11.628;2022-11-18T04:44:58;7.70;99.90
1015;DHT22;8170;48.118;11.628;2022-11-18T04:46:01;7.70;99.90
1015;DHT22;8170;48.118;11.628;2022-11-18T04:47:04;7.70;99.90
1015;DHT22;8170;48.118;11.628;2022-11-18T04:48:07;7.70;99.90
1015;DHT22;8170;48.118;11.628;2022-11-18T04:49:13;7.70;99.90
1015;DHT22;8170;48.118;11.628;2022-11-18T04:50:17;7.70;99.90
1015;DHT22;8170;48.118;11.628;2022-11-18T04:51:19;7.80;99.90
1015;DHT22;8170;48.118;11.628;2022-11-18T04:52:22;7.80;99.90
1015;DHT22;8170;48.118;11.628;2022-11-18T04:53:24;7.70;99.90
1015;DHT22;8170;48.118;11.628;2022-11-18T04:54:27;7.80;99.90
1015;DHT22;8170;48.118;11.628;2022-11-18T04:55:29;7.70;99.90
1015;DHT22;8170;48.118;11.628;2022-11-18T04:56:33;7.80;99.90
1015;DHT22;8170;48.118;11.628;2022-11-18T04:57:35;7.70;99.90
1015;DHT22;8170;48.118;11.628;2022-11-18T04:58:38;7.70;99.90
1015;DHT22;8170;48.118;11.628;2022-11-18T04:59:40;7.70;99.90
1015;DHT22;8170;48.118;11.628;2022-11-18T05:00:43;7.70;99.90
1015;DHT22;8170;48.118;11.628;2022-11-18T05:01:46;7.70;99.90
1015;DHT22;8170;48.118;11.628;2022-11-18T05:02:49;7.70;99.90
1015;DHT22;8170;48.118;11.628;2022-11-18T05:03:51;7.70;99.90
1015;DHT22;8170;48.118;11.628;2022-11-18T05:04:55;7.70;99.90
1015;DHT22;8170;48.118;11.628;2022-11-18T05:06:00;7.70;99.90
1015;DHT22;8170;48.118;11.628;2022-11-18T05:07:03;7.70;99.90
1015;DHT22;8170;48.118;11.628;2022-11-18T05:08:06;7.70;99.90
1015;DHT22;8170;48.118;11.628;2022-11-18T05:09:09;7.70;99.90
1015;DHT22;8170;48.118;11.628;2022-11-18T05:10:12;7.70;99.90
1015;DHT22;8170;48.118;11.628;2022-11-18T05:11:15;7.70;99.90
1015;DHT22;8170;48.118;11.628;2022-11-18T05:12:35;7.70;99.90
1015;DHT22;8170;48.118;11.628;2022-11-18T05:13:50;7.60;99.90
1015;DHT22;8170;48.118;11.628;2022-11-18T05:14:52;7.70;99.90
1015;DHT22;8170;48.118;11.628;2022-11-18T05:15:59;7.70;99.90
1015;DHT22;8170;48.118;11.628;2022-11-18T05:17:04;7.70;99.90
1015;DHT22;8170;48.118;11.628;2022-11-18T05:18:09;7.70;99.90
1015;DHT22;8170;48.118;11.628;2022-11-18T05:19:11;7.70;99.90
1015;DHT22;8170;48.118;11.628;2022-11-18T05:20:16;7.70;99.90
1015;DHT22;8170;48.118;11.628;2022-11-18T05:21:18;7.70;99.90
1015;DHT22;8170;48.118;11.628;2022-11-18T05:22:21;7.70;99.90
1015;DHT22;8170;48.118;11.628;2022-11-18T05:23:25;7.70;99.90
1015;DHT22;8170;48.118;11.628;2022-11-18T05:24:27;7.70;99.90
1015;DHT22;8170;48.118;11.628;2022-11-18T05:25:30;7.60;99.90
1015;DHT22;8170;48.118;11.628;2022-11-18T05:26:32;7.60;99.90
1015;DHT22;8170;48.118;11.628;2022-11-18T05:27:35;7.60;99.90
1015;DHT22;8170;48.118;11.628;2022-11-18T05:28:38;7.60;99.90
1015;DHT22;8170;48.118;11.628;2022-11-18T05:29:41;7.60;99.90
1015;DHT22;8170;48.118;11.628;2022-11-18T05:30:44;7.60;99.90
1015;DHT22;8170;48.118;11.628;2022-11-18T05:31:47;7.60;99.90
1015;DHT22;8170;48.118;11.628;2022-11-18T05:32:51;7.60;99.90
1015;DHT22;8170;48.118;11.628;2022-11-18T05:33:54;7.60;99.90
1015;DHT22;8170;48.118;11.628;2022-11-18T05:34:57;7.60;99.90
1015;DHT22;8170;48.118;11.628;2022-11-18T05:36:03;7.60;99.90
1015;DHT22;8170;48.118;11.628;2022-11-18T05:37:05;7.60;99.90
1015;DHT22;8170;48.118;11.628;2022-11-18T05:38:08;7.60;99.90
1015;DHT22;8170;48.118;11.628;2022-11-18T05:39:10;7.60;99.90
1015;DHT22;8170;48.118;11.628;2022-11-18T05:40:14;7.60;99.90
1015;DHT22;8170;48.118;11.628;2022-11-18T05:41:17;7.60;99.90
1015;DHT22;8170;48.118;11.628;2022-11-18T05:42:38;7.60;99.90
1015;DHT22;8170;48.118;11.628;2022-11-18T05:43:59;7.60;99.90
1015;DHT22;8170;48.118;11.628;2022-11-18T05:45:02;7.50;99.90
1015;DHT22;8170;48.118;11.628;2022-11-18T05:46:05;7.50;99.90
1015;DHT22;8170;48.118;11.628;2022-11-18T05:47:08;7.60;99.90
1015;DHT22;8170;48.118;11.628;2022-11-18T05:48:10;7.50;99.90
1015;DHT22;8170;48.118;11.628;2022-11-18T05:49:13;7.50;99.90
1015;DHT22;8170;48.118;11.628;2022-11-18T05:50:16;7.40;99.90
1015;DHT22;8170;48.118;11.628;2022-11-18T05:51:23;7.40;99.90
1015;DHT22;8170;48.118;11.628;2022-11-18T05:52:27;7.50;99.90
1015;DHT22;8170;48.118;11.628;2022-11-18T05:53:29;7.40;99.90
1015;DHT22;8170;48.118;11.628;2022-11-18T05:54:32;7.50;99.90
1015;DHT22;8170;48.118;11.628;2022-11-18T05:55:37;7.40;99.90
1015;DHT22;8170;48.118;11.628;2022-11-18T05:56:42;7.40;99.90
1015;DHT22;8170;48.118;11.628;2022-11-18T05:57:45;7.40;99.90
1015;DHT22;8170;48.118;11.628;2022-11-18T05:58:48;7.40;99.90
1015;DHT22;8170;48.118;11.628;2022-11-18T05:59:51;7.40;99.90
1015;DHT22;8170;48.118;11.628;2022-11-18T06:00:56;7.50;99.90
1015;DHT22;8170;48.118;11.628;2022-11-18T06:02:04;7.50;99.90
1015;DHT22;8170;48.118;11.628;2022-11-18T06:03:11;7.50;99.90
1015;DHT22;8170;48.118;11.628;2022-11-18T06:04:16;7.50;99.90
1015;DHT22;8170;48.118;11.628;2022-11-18T06:05:22;7.50;99.90
1015;DHT22;8170;48.118;11.628;2022-11-18T06:06:27;7.50;99.90
1015;DHT22;8170;48.118;11.628;2022-11-18T06:07:32;7.50;99.90
1015;DHT22;8170;48.118;11.628;2022-11-18T06:08:39;7.50;99.90
1015;DHT22;8170;48.118;11.628;2022-11-18T06:09:46;7.60;99.90
1015;DHT22;8170;48.118;11.628;2022-11-18T06:10:51;7.60;99.90
1015;DHT22;8170;48.118;11.628;2022-11-18T06:11:56;7.50;99.90
1015;DHT22;8170;48.118;11.628;2022-11-18T06:13:05;7.50;99.90
1015;DHT22;8170;48.118;11.628;2022-11-18T06:14:13;7.50;99.90
1015;DHT22;8170;48.118;11.628;2022-11-18T06:15:19;7.50;99.90
1015;DHT22;8170;48.118;11.628;2022-11-18T06:16:25;7.50;99.90
1015;DHT22;8170;48.118;11.628;2022-11-18T06:17:31;7.60;99.90
1015;DHT22;8170;48.118;11.628;2022-11-18T06:18:33;7.50;99.90
1015;DHT22;8170;48.118;11.628;2022-11-18T06:19:37;7.50;99.90
1015;DHT22;8170;48.118;11.628;2022-11-18T06:20:40;7.50;99.90
1015;DHT22;8170;48.118;11.628;2022-11-18T06:21:45;7.40;99.90
1015;DHT22;8170;48.118;11.628;2022-11-18T06:22:50;7.50;99.90
1015;DHT22;8170;48.118;11.628;2022-11-18T06:23:55;7.40;99.90
1015;DHT22;8170;48.118;11.628;2022-11-18T06:24:59;7.40;99.90
1015;DHT22;8170;48.118;11.628;2022-11-18T06:26:02;7.40;99.90
1015;DHT22;8170;48.118;11.628;2022-11-18T06:27:04;7.40;99.90
1015;DHT22;8170;48.118;11.628;2022-11-18T06:28:09;7.40;99.90
1015;DHT22;8170;48.118;11.628;2022-11-18T06:29:13;7.40;99.90
1015;DHT22;8170;48.118;11.628;2022-11-18T06:30:22;7.40;99.90
1015;DHT22;8170;48.118;11.628;2022-11-18T06:31:25;7.40;99.90
1015;DHT22;8170;48.118;11.628;2022-11-18T06:32:27;7.40;99.90
1015;DHT22;8170;48.118;11.628;2022-11-18T06:33:30;7.40;99.90
1015;DHT22;8170;48.118;11.628;2022-11-18T06:34:33;7.40;99.90
1015;DHT22;8170;48.118;11.628;2022-11-18T06:35:43;7.40;99.90
1015;DHT22;8170;48.118;11.628;2022-11-18T06:36:46;7.40;99.90
1015;DHT22;8170;48.118;11.628;2022-11-18T06:37:50;7.40;99.90
1015;DHT22;8170;48.118;11.628;2022-11-18T06:38:52;7.40;99.90
1015;DHT22;8170;48.118;11.628;2022-11-18T06:39:55;7.40;99.90
1015;DHT22;8170;48.118;11.628;2022-11-18T06:40:58;7.40;99.90
1015;DHT22;8170;48.118;11.628;2022-11-18T06:42:02;7.50;99.90
1015;DHT22;8170;48.118;11.628;2022-11-18T06:43:05;7.40;99.90
1015;DHT22;8170;48.118;11.628;2022-11-18T06:44:26;7.40;99.90
1015;DHT22;8170;48.118;11.628;2022-11-18T06:45:29;7.50;99.90
1015;DHT22;8170;48.118;11.628;2022-11-18T06:46:32;7.50;99.90
1015;DHT22;8170;48.118;11.628;2022-11-18T06:47:55;7.50;99.90
1015;DHT22;8170;48.118;11.628;2022-11-18T06:48:59;7.50;99.90
1015;DHT22;8170;48.118;11.628;2022-11-18T06:50:02;7.50;99.90
1015;DHT22;8170;48.118;11.628;2022-11-18T06:51:06;7.50;99.90
1015;DHT22;8170;48.118;11.628;2022-11-18T06:52:10;7.50;99.90
1015;DHT22;8170;48.118;11.628;2022-11-18T06:53:13;7.50;99.90
1015;DHT22;8170;48.118;11.628;2022-11-18T06:54:15;7.50;99.90
1015;DHT22;8170;48.118;11.628;2022-11-18T06:55:19;7.50;99.90
1015;DHT22;8170;48.118;11.628;2022-11-18T06:56:21;7.50;99.90
1015;DHT22;8170;48.118;11.628;2022-11-18T06:57:25;7.50;99.90
1015;DHT22;8170;48.118;11.628;2022-11-18T06:58:27;7.50;99.90
1015;DHT22;8170;48.118;11.628;2022-11-18T06:59:31;7.50;99.90
1015;DHT22;8170;48.118;11.628;2022-11-18T07:00:35;7.50;99.90
1015;DHT22;8170;48.118;11.628;2022-11-18T07:01:39;7.50;99.90
1015;DHT22;8170;48.118;11.628;2022-11-18T07:02:43;7.50;99.90
1015;DHT22;8170;48.118;11.628;2022-11-18T07:03:46;7.50;99.90
1015;DHT22;8170;48.118;11.628;2022-11-18T07:04:50;7.50;99.90
1015;DHT22;8170;48.118;11.628;2022-11-18T07:05:53;7.50;99.90
1015;DHT22;8170;48.118;11.628;2022-11-18T07:06:55;7.50;99.90
1015;DHT22;8170;48.118;11.628;2022-11-18T07:07:59;7.50;99.90
1015;DHT22;8170;48.118;11.628;2022-11-18T07:09:03;7.50;99.90
1015;DHT22;8170;48.118;11.628;2022-11-18T07:10:10;7.50;99.90
1015;DHT22;8170;48.118;11.628;2022-11-18T07:11:13;7.60;99.90